Station Historical Data
Daily Summary for February 21, 2017 Units:  Metric    English   Both
« Previous Day
Next Day »
Daily Weekly Monthly Yearly Custom
  High: Low: Average:
Temperature: 8.3 °C 4.5 °C 6.1 °C
Dew Point: 7.5 °C 3.6 °C 5.2 °C
Humidity: 95 % 94 % 94 %
Wind Speed: 46.7 km/h 0 km/h 9.8 km/h
Wind Gust: 61.2 km/h - -
Wind:- - SSW
Pressure: 1024.6 hPa 1017.8 hPa -
Precipitation: 30.99 mm    
Historical Graphs
 
 
Tabular Data for February 21, 2017
Time Temperature Dew Point Pressure Wind Wind Speed Wind Gust Humidity Rainfall Rate (Hourly) solar
00:03 8.2 °C 7.5 °C 1017.8 hPa SSE 17.7 km/h 46.7 km/h 95 % 0 mm 0.00 W/m2
00:08 8.2 °C 7.5 °C 1018.2 hPa SSW 38.6 km/h 38.6 km/h 95 % 0 mm 0.00 W/m2
00:13 8.2 °C 7.5 °C 1017.8 hPa SSE 35.4 km/h 54.7 km/h 95 % 0 mm 0.00 W/m2
00:18 8.2 °C 7.3 °C 1018.2 hPa SE 32.2 km/h 41.8 km/h 94 % 0 mm 0.00 W/m2
00:24 8.2 °C 7.3 °C 1018.5 hPa SW 14.5 km/h 48.3 km/h 94 % 0 mm 0.00 W/m2
00:29 8.2 °C 7.5 °C 1018.5 hPa SW 11.3 km/h 48.3 km/h 95 % 0 mm 0.00 W/m2
00:34 8.2 °C 7.5 °C 1018.8 hPa SSW 33.8 km/h 56.3 km/h 95 % 0 mm 0.00 W/m2
00:39 8.3 °C 7.5 °C 1018.8 hPa SSW 37 km/h 48.3 km/h 95 % 0 mm 0.00 W/m2
00:44 8.3 °C 7.5 °C 1018.8 hPa SE 14.5 km/h 61.2 km/h 95 % 0 mm 0.00 W/m2
00:49 8.2 °C 7.5 °C 1018.5 hPa South 17.7 km/h 51.5 km/h 95 % 0 mm 0.00 W/m2
00:54 8.2 °C 7.3 °C 1018.5 hPa SSW 35.4 km/h 51.5 km/h 94 % 0 mm 0.00 W/m2
00:59 8.2 °C 7.4 °C 1018.5 hPa South 24.1 km/h 61.2 km/h 95 % 0 mm 0.00 W/m2
01:04 8.2 °C 7.3 °C 1018.5 hPa South 16.1 km/h 32.2 km/h 94 % 0 mm 0.00 W/m2
01:09 8.2 °C 7.3 °C 1018.5 hPa South 14.5 km/h 40.2 km/h 94 % 2.03 mm 0.00 W/m2
01:14 8.2 °C 7.3 °C 1018.8 hPa South 30.6 km/h 43.5 km/h 94 % 4.06 mm 0.00 W/m2
01:19 8.2 °C 7.3 °C 1018.5 hPa South 9.7 km/h 40.2 km/h 94 % 1.78 mm 0.00 W/m2
01:24 8.2 °C 7.3 °C 1018.5 hPa South 33.8 km/h 54.7 km/h 94 % 1.27 mm 0.00 W/m2
01:29 8.2 °C 7.3 °C 1018.8 hPa SSW 37 km/h 38.6 km/h 94 % 4.83 mm 0.00 W/m2
01:34 8.2 °C 7.3 °C 1018.8 hPa SW 19.3 km/h 25.7 km/h 94 % 27.94 mm 0.00 W/m2
01:39 8.1 °C 7.2 °C 1018.5 hPa Calm   30.6 km/h 94 % 14.73 mm 0.00 W/m2
01:44 8.1 °C 7.2 °C 1018.2 hPa SW 14.5 km/h 25.7 km/h 94 % 12.19 mm 0.00 W/m2
01:49 8.1 °C 7.2 °C 1018.2 hPa SW 8 km/h 27.4 km/h 94 % 3.56 mm 0.00 W/m2
01:54 8.1 °C 7.2 °C 1018.5 hPa SW 17.7 km/h 48.3 km/h 94 % 1.52 mm 0.00 W/m2
01:59 8.2 °C 7.3 °C 1018.5 hPa SW 33.8 km/h 45.1 km/h 94 % 1.02 mm 0.00 W/m2
02:04 8.1 °C 7.2 °C 1018.5 hPa South 33.8 km/h 51.5 km/h 94 % 5.84 mm 0.00 W/m2
02:09 7.9 °C 7.1 °C 1018.8 hPa SSW 20.9 km/h 46.7 km/h 94 % 3.05 mm 0.00 W/m2
02:14 7.8 °C 6.9 °C 1018.5 hPa Calm   29 km/h 94 % 7.87 mm 0.00 W/m2
02:19 7.8 °C 6.9 °C 1018.8 hPa SSW 11.3 km/h 33.8 km/h 94 % 5.08 mm 0.00 W/m2
02:24 7.9 °C 7 °C 1019.2 hPa South 24.1 km/h 45.1 km/h 94 % 3.56 mm 0.00 W/m2
02:29 7.9 °C 7 °C 1019.2 hPa SSW 1.6 km/h 46.7 km/h 94 % 1.52 mm 0.00 W/m2
02:34 7.9 °C 7 °C 1019.2 hPa SW 29 km/h 38.6 km/h 94 % 1.02 mm 0.00 W/m2
02:39 7.9 °C 7 °C 1019.2 hPa SSW 33.8 km/h 35.4 km/h 94 % 0 mm 0.00 W/m2
02:44 7.8 °C 6.9 °C 1019.2 hPa SSW 9.7 km/h 53.1 km/h 94 % 4.06 mm 0.00 W/m2
02:49 7.7 °C 6.8 °C 1019.2 hPa SW 3.2 km/h 41.8 km/h 94 % 6.1 mm 0.00 W/m2
02:54 7.6 °C 6.7 °C 1019.2 hPa SSW 12.9 km/h 35.4 km/h 94 % 3.56 mm 0.00 W/m2
02:59 7.6 °C 6.7 °C 1019.2 hPa SW 16.1 km/h 33.8 km/h 94 % 12.95 mm 0.00 W/m2
03:04 7.6 °C 6.7 °C 1019.2 hPa WSW 12.9 km/h 38.6 km/h 94 % 7.87 mm 0.00 W/m2
03:09 7.6 °C 6.7 °C 1019.5 hPa WSW 11.3 km/h 41.8 km/h 94 % 8.64 mm 0.00 W/m2
03:14 7.6 °C 6.7 °C 1019.5 hPa SW 46.7 km/h 46.7 km/h 94 % 2.29 mm 0.00 W/m2
03:19 7.6 °C 6.7 °C 1019.9 hPa WSW 25.7 km/h 35.4 km/h 94 % 1.27 mm 0.00 W/m2
03:24 7.5 °C 6.6 °C 1019.5 hPa SW 17.7 km/h 41.8 km/h 94 % 1.02 mm 0.00 W/m2
03:29 7.4 °C 6.6 °C 1019.5 hPa SSW 17.7 km/h 38.6 km/h 94 % 0 mm 0.00 W/m2
03:34 7.4 °C 6.6 °C 1019.5 hPa WSW 12.9 km/h 40.2 km/h 94 % 0 mm 0.00 W/m2
03:39 7.4 °C 6.5 °C 1019.5 hPa SW 17.7 km/h 33.8 km/h 94 % 0 mm 0.00 W/m2
03:44 7.4 °C 6.5 °C 1019.5 hPa SW 4.8 km/h 20.9 km/h 94 % 0 mm 0.00 W/m2
03:49 7.4 °C 6.5 °C 1019.5 hPa SSW 20.9 km/h 24.1 km/h 94 % 0 mm 0.00 W/m2
03:54 7.4 °C 6.6 °C 1019.5 hPa SW 8 km/h 19.3 km/h 94 % 0 mm 0.00 W/m2
03:59 7.4 °C 6.6 °C 1019.5 hPa SW 19.3 km/h 29 km/h 94 % 1.02 mm 0.00 W/m2
04:04 7.3 °C 6.4 °C 1019.5 hPa SW 19.3 km/h 29 km/h 94 % 9.65 mm 0.00 W/m2
04:09 7.3 °C 6.4 °C 1019.5 hPa SSW 4.8 km/h 30.6 km/h 94 % 4.32 mm 0.00 W/m2
04:14 7.2 °C 6.3 °C 1019.5 hPa SW 16.1 km/h 51.5 km/h 94 % 2.03 mm 0.00 W/m2
04:19 7.3 °C 6.4 °C 1019.9 hPa SSW 20.9 km/h 48.3 km/h 94 % 1.27 mm 0.00 W/m2
04:24 7.3 °C 6.4 °C 1019.9 hPa SW 22.5 km/h 38.6 km/h 94 % 0 mm 0.00 W/m2
04:29 7.3 °C 6.4 °C 1019.9 hPa South 14.5 km/h 40.2 km/h 94 % 0 mm 0.00 W/m2
04:34 7.3 °C 6.4 °C 1019.9 hPa SSW 29 km/h 48.3 km/h 94 % 0 mm 0.00 W/m2
04:39 7.3 °C 6.4 °C 1019.9 hPa SW 19.3 km/h 38.6 km/h 94 % 0 mm 0.00 W/m2
04:44 7.2 °C 6.3 °C 1019.9 hPa West 9.7 km/h 48.3 km/h 94 % 0 mm 0.00 W/m2
04:49 7.2 °C 6.3 °C 1019.9 hPa South 33.8 km/h 45.1 km/h 94 % 0 mm 0.00 W/m2
04:54 7.1 °C 6.2 °C 1020.2 hPa SSW 6.4 km/h 33.8 km/h 94 % 0 mm 0.00 W/m2
04:59 7.1 °C 6.2 °C 1020.2 hPa West 6.4 km/h 48.3 km/h 94 % 0 mm 0.00 W/m2
05:04 7.1 °C 6.2 °C 1020.2 hPa SSW 20.9 km/h 38.6 km/h 94 % 0 mm 0.00 W/m2
05:09 7.1 °C 6.2 °C 1020.2 hPa SSW 22.5 km/h 41.8 km/h 94 % 0 mm 0.00 W/m2
05:14 7.1 °C 6.2 °C 1020.2 hPa WSW 19.3 km/h 38.6 km/h 94 % 0 mm 0.00 W/m2
05:19 7.1 °C 6.2 °C 1020.2 hPa SW 17.7 km/h 41.8 km/h 94 % 0 mm 0.00 W/m2
05:24 7.1 °C 6.2 °C 1020.2 hPa WNW 16.1 km/h 25.7 km/h 94 % 0 mm 0.00 W/m2
05:30 7.1 °C 6.2 °C 1020.2 hPa WSW 29 km/h 38.6 km/h 94 % 0 mm 0.00 W/m2
05:35 7 °C 6.1 °C 1020.2 hPa SW 11.3 km/h 29 km/h 94 % 0 mm 0.00 W/m2
05:40 6.9 °C 6.1 °C 1020.2 hPa WSW 30.6 km/h 32.2 km/h 94 % 1.52 mm 0.00 W/m2
05:45 6.9 °C 6.1 °C 1020.5 hPa WSW 35.4 km/h 35.4 km/h 94 % 7.87 mm 0.00 W/m2
05:50 6.8 °C 5.9 °C 1020.5 hPa West 22.5 km/h 33.8 km/h 94 % 3.3 mm 0.00 W/m2
06:00 6.4 °C 5.6 °C 1020.9 hPa SW 22.5 km/h 40.2 km/h 94 % 1.27 mm 0.00 W/m2
06:05 6.3 °C 5.4 °C 1020.9 hPa West 25.7 km/h 33.8 km/h 94 % 1.02 mm 0.00 W/m2
06:10 6.2 °C 5.3 °C 1020.9 hPa SW 19.3 km/h 37 km/h 94 % 0 mm 0.00 W/m2
06:15 6.1 °C 5.2 °C 1020.9 hPa West 24.1 km/h 37 km/h 94 % 0 mm 0.00 W/m2
06:20 5.9 °C 5.1 °C 1021.2 hPa West 4.8 km/h 38.6 km/h 94 % 0 mm 0.00 W/m2
06:25 5.8 °C 4.9 °C 1021.2 hPa SSW 8 km/h 25.7 km/h 94 % 0 mm 0.00 W/m2
06:30 5.8 °C 4.9 °C 1021.2 hPa SW 12.9 km/h 32.2 km/h 94 % 0 mm 0.00 W/m2
06:35 5.8 °C 4.9 °C 1021.2 hPa SW 35.4 km/h 43.5 km/h 94 % 0 mm 0.00 W/m2
06:40 5.7 °C 4.8 °C 1021.6 hPa WNW 24.1 km/h 38.6 km/h 94 % 0 mm 0.00 W/m2
06:45 5.7 °C 4.8 °C 1021.6 hPa West 12.9 km/h 32.2 km/h 94 % 0 mm 0.00 W/m2
06:50 5.7 °C 4.8 °C 1021.6 hPa WSW 19.3 km/h 38.6 km/h 94 % 0 mm 0.00 W/m2
06:55 5.6 °C 4.7 °C 1021.6 hPa SW 14.5 km/h 32.2 km/h 94 % 0 mm 0.00 W/m2
07:00 5.6 °C 4.7 °C 1021.9 hPa WSW 8 km/h 35.4 km/h 94 % 0 mm 0.00 W/m2
07:05 5.6 °C 4.7 °C 1022.2 hPa West 11.3 km/h 35.4 km/h 94 % 0 mm 0.00 W/m2
07:10 5.6 °C 4.7 °C 1022.2 hPa WSW 11.3 km/h 29 km/h 94 % 0 mm 0.00 W/m2
07:15 5.6 °C 4.7 °C 1022.2 hPa SSW 11.3 km/h 35.4 km/h 94 % 0 mm 0.00 W/m2
07:20 5.6 °C 4.7 °C 1022.2 hPa WSW 19.3 km/h 33.8 km/h 94 % 0 mm 7.00 W/m2
07:25 5.6 °C 4.7 °C 1022.6 hPa West 12.9 km/h 32.2 km/h 94 % 0 mm 12.00 W/m2
07:30 5.6 °C 4.7 °C 1022.6 hPa West 6.4 km/h 27.4 km/h 94 % 0 mm 14.00 W/m2
07:35 5.6 °C 4.7 °C 1022.6 hPa WSW 19.3 km/h 30.6 km/h 94 % 0 mm 16.00 W/m2
07:40 5.6 °C 4.7 °C 1022.6 hPa WSW 4.8 km/h 29 km/h 94 % 0 mm 18.00 W/m2
07:45 5.6 °C 4.7 °C 1022.6 hPa WSW 12.9 km/h 24.1 km/h 94 % 0 mm 33.00 W/m2
07:50 5.7 °C 4.8 °C 1022.6 hPa West 11.3 km/h 17.7 km/h 94 % 0 mm 28.00 W/m2
07:55 5.7 °C 4.8 °C 1022.6 hPa SW 9.7 km/h 30.6 km/h 94 % 0 mm 26.00 W/m2
08:00 5.7 °C 4.8 °C 1022.6 hPa SSW 12.9 km/h 29 km/h 94 % 0 mm 18.00 W/m2
08:05 5.7 °C 4.8 °C 1022.6 hPa West 20.9 km/h 20.9 km/h 94 % 0 mm 19.00 W/m2
08:10 5.7 °C 4.8 °C 1022.9 hPa SW 25.7 km/h 27.4 km/h 94 % 0 mm 28.00 W/m2
08:15 5.8 °C 4.9 °C 1022.9 hPa SSE 11.3 km/h 27.4 km/h 94 % 0 mm 25.00 W/m2
08:20 5.7 °C 4.8 °C 1022.9 hPa WSW 9.7 km/h 32.2 km/h 94 % 0 mm 19.00 W/m2
08:25 5.7 °C 4.8 °C 1022.9 hPa WSW 9.7 km/h 22.5 km/h 94 % 0 mm 25.00 W/m2
08:30 5.7 °C 4.8 °C 1022.9 hPa SW 20.9 km/h 20.9 km/h 94 % 0 mm 19.00 W/m2
08:35 5.7 °C 4.8 °C 1022.9 hPa WSW 22.5 km/h 27.4 km/h 94 % 0 mm 25.00 W/m2
08:40 5.7 °C 4.8 °C 1023.2 hPa SW 8 km/h 22.5 km/h 94 % 0 mm 19.00 W/m2
08:45 5.7 °C 4.8 °C 1023.2 hPa SSW 12.9 km/h 22.5 km/h 94 % 0 mm 26.00 W/m2
08:50 5.7 °C 4.8 °C 1023.2 hPa SSW 9.7 km/h 27.4 km/h 94 % 0 mm 77.00 W/m2
08:55 5.7 °C 4.8 °C 1023.2 hPa SW 11.3 km/h 22.5 km/h 94 % 0 mm 54.00 W/m2
09:00 5.8 °C 4.9 °C 1023.6 hPa South 14.5 km/h 20.9 km/h 94 % 0 mm 97.00 W/m2
09:05 5.8 °C 4.9 °C 1023.6 hPa WSW 8 km/h 27.4 km/h 94 % 0 mm 104.00 W/m2
09:10 5.8 °C 4.9 °C 1023.6 hPa SW 17.7 km/h 32.2 km/h 94 % 0 mm 97.00 W/m2
09:15 5.8 °C 4.9 °C 1023.6 hPa WSW 17.7 km/h 25.7 km/h 94 % 0 mm 40.00 W/m2
09:20 5.8 °C 4.9 °C 1023.6 hPa SW 4.8 km/h 24.1 km/h 94 % 0 mm 23.00 W/m2
09:25 5.8 °C 4.9 °C 1023.9 hPa SW 12.9 km/h 25.7 km/h 94 % 0 mm 30.00 W/m2
09:30 5.9 °C 5 °C 1023.9 hPa Calm   22.5 km/h 94 % 0 mm 39.00 W/m2
09:35 5.9 °C 5 °C 1023.6 hPa SSW 9.7 km/h 16.1 km/h 94 % 0 mm 39.00 W/m2
09:40 5.9 °C 5.1 °C 1023.9 hPa SW 3.2 km/h 27.4 km/h 94 % 0 mm 37.00 W/m2
09:45 5.9 °C 5 °C 1023.9 hPa South 4.8 km/h 24.1 km/h 94 % 0 mm 42.00 W/m2
09:50 5.9 °C 5 °C 1023.9 hPa Calm   25.7 km/h 94 % 0 mm 81.00 W/m2
09:55 5.9 °C 5 °C 1023.9 hPa Calm   19.3 km/h 94 % 0 mm 49.00 W/m2
10:00 5.9 °C 5 °C 1023.9 hPa WSW 20.9 km/h 20.9 km/h 94 % 0 mm 62.00 W/m2
10:05 5.9 °C 5.1 °C 1024.3 hPa WSW 6.4 km/h 20.9 km/h 94 % 0 mm 109.00 W/m2
10:10 6.1 °C 5.2 °C 1023.9 hPa Calm   20.9 km/h 94 % 0 mm 120.00 W/m2
10:15 6.1 °C 5.2 °C 1024.3 hPa West 6.4 km/h 17.7 km/h 94 % 0 mm 134.00 W/m2
10:20 6.1 °C 5.2 °C 1024.3 hPa SW 12.9 km/h 19.3 km/h 94 % 0 mm 91.00 W/m2
10:25 6.1 °C 5.2 °C 1024.3 hPa Calm   20.9 km/h 94 % 0 mm 74.00 W/m2
10:30 6.2 °C 5.3 °C 1024.3 hPa SSW 3.2 km/h 19.3 km/h 94 % 0 mm 51.00 W/m2
10:35 6.2 °C 5.3 °C 1024.6 hPa SW 9.7 km/h 17.7 km/h 94 % 0 mm 77.00 W/m2
10:40 6.2 °C 5.3 °C 1024.6 hPa Calm   19.3 km/h 94 % 0 mm 214.00 W/m2
10:45 6.2 °C 5.3 °C 1024.6 hPa Calm   17.7 km/h 94 % 0 mm 218.00 W/m2
10:50 6.3 °C 5.6 °C 1024.6 hPa Calm   16.1 km/h 95 % 0 mm 236.00 W/m2
10:55 6.3 °C 5.4 °C 1024.6 hPa WSW 9.7 km/h 30.6 km/h 94 % 0 mm 213.00 W/m2
11:00 6.5 °C 5.8 °C 1024.6 hPa SSW 3.2 km/h 22.5 km/h 95 % 0 mm 127.00 W/m2
11:05 6.5 °C 5.8 °C 1024.6 hPa WSW 12.9 km/h 22.5 km/h 95 % 0 mm 172.00 W/m2
11:10 6.5 °C 5.8 °C 1024.6 hPa South 12.9 km/h 24.1 km/h 95 % 0 mm 130.00 W/m2
11:13 6.5 °C 5.8 °C 1024.3 hPa SSW 9.7 km/h 19.3 km/h 95 % 0 mm 86.00 W/m2
11:18 6.5 °C 5.8 °C 1024.3 hPa SSW 14.5 km/h 19.3 km/h 95 % 0 mm 53.00 W/m2
11:23 6.5 °C 5.8 °C 1024.3 hPa SW 8 km/h 17.7 km/h 95 % 13.72 mm 72.00 W/m2
11:28 6.3 °C 5.4 °C 1024.3 hPa South 4.8 km/h 27.4 km/h 94 % 3.56 mm 179.00 W/m2
11:33 6.3 °C 5.4 °C 1024.3 hPa SSW 12.9 km/h 27.4 km/h 94 % 2.29 mm 193.00 W/m2
11:38 6.3 °C 5.4 °C 1024.3 hPa Calm   22.5 km/h 94 % 1.27 mm 248.00 W/m2
11:43 6.4 °C 5.5 °C 1023.9 hPa SW 25.7 km/h 29 km/h 94 % 1.02 mm 332.00 W/m2
11:48 6.5 °C 5.8 °C 1023.9 hPa SW 16.1 km/h 38.6 km/h 95 % 0 mm 327.00 W/m2
11:53 6.7 °C 5.9 °C 1023.9 hPa SSW 17.7 km/h 25.7 km/h 95 % 0 mm 388.00 W/m2
11:58 6.8 °C 6.1 °C 1023.6 hPa SSE 8 km/h 16.1 km/h 95 % 0 mm 267.00 W/m2
12:03 6.8 °C 6.1 °C 1023.9 hPa SSW 19.3 km/h 30.6 km/h 95 % 0 mm 128.00 W/m2
12:08 6.8 °C 5.9 °C 1023.6 hPa SSW 8 km/h 20.9 km/h 94 % 0 mm 69.00 W/m2
12:13 6.8 °C 5.9 °C 1023.6 hPa SW 16.1 km/h 29 km/h 94 % 0 mm 37.00 W/m2
12:18 6.7 °C 5.8 °C 1023.9 hPa West 14.5 km/h 19.3 km/h 94 % 0 mm 28.00 W/m2
12:23 6.7 °C 5.8 °C 1023.9 hPa WSW 22.5 km/h 22.5 km/h 94 % 0 mm 23.00 W/m2
12:28 6.4 °C 5.6 °C 1023.9 hPa West 6.4 km/h 29 km/h 94 % 4.57 mm 16.00 W/m2
12:33 6.1 °C 5.2 °C 1023.9 hPa Calm   16.1 km/h 94 % 7.37 mm 18.00 W/m2
12:38 5.8 °C 4.9 °C 1023.9 hPa Calm   16.1 km/h 94 % 10.67 mm 19.00 W/m2
12:43 5.5 °C 4.6 °C 1023.9 hPa Calm     94 % 17.78 mm 18.00 W/m2
12:48 5.1 °C 4.2 °C 1023.6 hPa West 9.7 km/h 16.1 km/h 94 % 18.03 mm 30.00 W/m2
12:53 4.8 °C 3.9 °C 1023.2 hPa Calm   1.6 km/h 94 % 6.35 mm 26.00 W/m2
12:58 4.7 °C 3.8 °C 1023.2 hPa Calm   12.9 km/h 94 % 3.3 mm 23.00 W/m2
13:03 4.6 °C 3.7 °C 1023.2 hPa West 6.4 km/h 14.5 km/h 94 % 3.05 mm 39.00 W/m2
13:08 4.6 °C 3.7 °C 1023.6 hPa Calm     94 % 1.52 mm 33.00 W/m2
13:13 4.7 °C 3.8 °C 1023.6 hPa Calm   14.5 km/h 94 % 1.02 mm 37.00 W/m2
13:18 4.9 °C 4 °C 1023.6 hPa Calm   19.3 km/h 94 % 0 mm 35.00 W/m2
13:23 5.1 °C 4.2 °C 1023.2 hPa SW 6.4 km/h 14.5 km/h 94 % 0 mm 79.00 W/m2
13:28 5.3 °C 4.4 °C 1023.2 hPa Calm   11.3 km/h 94 % 0 mm 102.00 W/m2
13:33 5.4 °C 4.6 °C 1023.2 hPa SW 11.3 km/h 20.9 km/h 94 % 0 mm 84.00 W/m2
13:38 5.6 °C 4.7 °C 1023.2 hPa South 9.7 km/h 12.9 km/h 94 % 0 mm 135.00 W/m2
13:43 5.7 °C 4.8 °C 1022.9 hPa South 14.5 km/h 17.7 km/h 94 % 0 mm 128.00 W/m2
13:48 5.8 °C 4.9 °C 1022.9 hPa SSW 4.8 km/h 22.5 km/h 94 % 0 mm 283.00 W/m2
13:53 5.8 °C 5.1 °C 1022.9 hPa SSW 9.7 km/h 16.1 km/h 95 % 0 mm 139.00 W/m2
13:58 5.9 °C 5.2 °C 1023.2 hPa Calm   11.3 km/h 95 % 0 mm 158.00 W/m2
13:59 5.9 °C 5.2 °C 1023.2 hPa Calm   11.3 km/h 95 % 0 mm 158.00 W/m2
14:04 6.1 °C 5.2 °C 1022.9 hPa SSE 8 km/h 20.9 km/h 94 % 0 mm 357.00 W/m2
14:09 6.1 °C 5.2 °C 1022.9 hPa SSE 6.4 km/h 20.9 km/h 94 % 0 mm 366.00 W/m2
14:14 6.2 °C 5.3 °C 1022.9 hPa Calm   12.9 km/h 94 % 0 mm 148.00 W/m2
14:19 6.2 °C 5.5 °C 1022.9 hPa SSE 6.4 km/h 16.1 km/h 95 % 0 mm 93.00 W/m2
14:24 6.2 °C 5.4 °C 1022.9 hPa South 8 km/h 14.5 km/h 95 % 0 mm 125.00 W/m2
14:29 6.1 °C 5.4 °C 1022.9 hPa Calm     95 % 0 mm 97.00 W/m2
14:34 6 °C 5.1 °C 1022.9 hPa Calm     94 % 0 mm 77.00 W/m2
14:39 5.9 °C 5.1 °C 1022.9 hPa Calm     94 % 0 mm 46.00 W/m2
14:44 5.9 °C 5 °C 1022.9 hPa Calm     94 % 0 mm 47.00 W/m2
14:49 5.8 °C 4.9 °C 1022.6 hPa Calm     94 % 0 mm 32.00 W/m2
14:54 5.8 °C 4.9 °C 1022.6 hPa Calm     94 % 0 mm 21.00 W/m2
14:59 5.8 °C 4.9 °C 1022.9 hPa Calm     94 % 0 mm 14.00 W/m2
15:04 5.8 °C 4.9 °C 1022.9 hPa Calm     94 % 3.05 mm 28.00 W/m2
15:09 5.8 °C 4.9 °C 1022.9 hPa SSE 6.4 km/h 17.7 km/h 94 % 4.57 mm 53.00 W/m2
15:14 5.7 °C 4.8 °C 1022.9 hPa South 12.9 km/h 19.3 km/h 94 % 1.78 mm 42.00 W/m2
15:19 5.6 °C 4.7 °C 1022.9 hPa South 12.9 km/h 25.7 km/h 94 % 1.02 mm 39.00 W/m2
15:24 5.6 °C 4.7 °C 1022.9 hPa SSW 12.9 km/h 16.1 km/h 94 % 0 mm 56.00 W/m2
15:29 5.5 °C 4.6 °C 1022.9 hPa Calm   9.7 km/h 94 % 0 mm 56.00 W/m2
15:34 5.5 °C 4.6 °C 1022.9 hPa Calm   16.1 km/h 94 % 0 mm 74.00 W/m2
15:39 5.4 °C 4.6 °C 1022.9 hPa SSW 8 km/h 16.1 km/h 94 % 0 mm 95.00 W/m2
15:44 5.4 °C 4.6 °C 1022.9 hPa South 16.1 km/h 17.7 km/h 94 % 0 mm 72.00 W/m2
15:49 5.5 °C 4.6 °C 1022.9 hPa Calm   16.1 km/h 94 % 0 mm 58.00 W/m2
15:54 5.5 °C 4.6 °C 1022.9 hPa SW 9.7 km/h 14.5 km/h 94 % 0 mm 60.00 W/m2
15:59 5.4 °C 4.6 °C 1022.9 hPa SSW 4.8 km/h 14.5 km/h 94 % 0 mm 46.00 W/m2
16:04 5.4 °C 4.6 °C 1022.9 hPa Calm   17.7 km/h 94 % 0 mm 33.00 W/m2
16:09 5.4 °C 4.6 °C 1022.9 hPa Calm   12.9 km/h 94 % 0 mm 53.00 W/m2
16:14 5.4 °C 4.6 °C 1022.9 hPa South 8 km/h 24.1 km/h 94 % 0 mm 72.00 W/m2
16:19 5.5 °C 4.6 °C 1022.9 hPa South 19.3 km/h 24.1 km/h 94 % 0 mm 72.00 W/m2
16:24 5.5 °C 4.6 °C 1022.9 hPa SSW 9.7 km/h 24.1 km/h 94 % 0 mm 47.00 W/m2
16:29 5.5 °C 4.6 °C 1022.9 hPa SSW 9.7 km/h 16.1 km/h 94 % 0 mm 39.00 W/m2
16:34 5.5 °C 4.6 °C 1022.9 hPa SSW 12.9 km/h 17.7 km/h 94 % 0 mm 23.00 W/m2
16:39 5.5 °C 4.6 °C 1022.9 hPa SSW 4.8 km/h 24.1 km/h 94 % 0 mm 23.00 W/m2
16:44 5.5 °C 4.6 °C 1022.9 hPa SSW 14.5 km/h 16.1 km/h 94 % 0 mm 12.00 W/m2
16:49 5.5 °C 4.6 °C 1022.9 hPa South 11.3 km/h 17.7 km/h 94 % 0 mm 9.00 W/m2
16:54 5.4 °C 4.6 °C 1022.9 hPa South 11.3 km/h 14.5 km/h 94 % 0 mm 14.00 W/m2
16:59 5.4 °C 4.6 °C 1022.9 hPa Calm   11.3 km/h 94 % 0 mm 16.00 W/m2
17:04 5.4 °C 4.5 °C 1022.9 hPa Calm     94 % 0 mm 5.00 W/m2
17:09 5.3 °C 4.4 °C 1022.9 hPa Calm     94 % 0 mm 11.00 W/m2
17:14 5.3 °C 4.4 °C 1022.9 hPa South 3.2 km/h 14.5 km/h 94 % 0 mm 9.00 W/m2
17:19 5.3 °C 4.4 °C 1022.6 hPa South 3.2 km/h 14.5 km/h 94 % 0 mm 7.00 W/m2
17:24 5.3 °C 4.4 °C 1022.9 hPa South 14.5 km/h 17.7 km/h 94 % 0 mm 7.00 W/m2
17:29 5.3 °C 4.4 °C 1022.9 hPa South 8 km/h 11.3 km/h 94 % 7.87 mm 5.00 W/m2
17:34 5.3 °C 4.4 °C 1022.9 hPa Calm     94 % 2.29 mm 0.00 W/m2
17:39 5.3 °C 4.4 °C 1022.9 hPa Calm   11.3 km/h 94 % 1.27 mm 0.00 W/m2
17:44 5.3 °C 4.4 °C 1022.9 hPa Calm     94 % 0 mm 0.00 W/m2
17:49 5.2 °C 4.3 °C 1022.9 hPa Calm     94 % 0 mm 0.00 W/m2
17:54 5.2 °C 4.3 °C 1023.2 hPa Calm     94 % 0 mm 0.00 W/m2
17:59 5.3 °C 4.4 °C 1022.9 hPa Calm     94 % 0 mm 0.00 W/m2
18:04 5.3 °C 4.4 °C 1023.2 hPa Calm     94 % 0 mm 0.00 W/m2
18:09 5.3 °C 4.4 °C 1023.2 hPa Calm     94 % 0 mm 0.00 W/m2
18:14 5.3 °C 4.4 °C 1023.2 hPa Calm     94 % 0 mm 0.00 W/m2
18:19 5.3 °C 4.4 °C 1023.2 hPa Calm     94 % 0 mm 0.00 W/m2
18:24 5.3 °C 4.4 °C 1023.2 hPa Calm     94 % 0 mm 0.00 W/m2
18:29 5.3 °C 4.4 °C 1023.2 hPa Calm     94 % 0 mm 0.00 W/m2
18:34 5.3 °C 4.4 °C 1023.2 hPa Calm     94 % 0 mm 0.00 W/m2
18:39 5.3 °C 4.4 °C 1023.6 hPa Calm     94 % 0 mm 0.00 W/m2
18:44 5.3 °C 4.4 °C 1023.6 hPa Calm     94 % 0 mm 0.00 W/m2
18:49 5.3 °C 4.4 °C 1023.6 hPa Calm     94 % 0 mm 0.00 W/m2
18:54 5.3 °C 4.4 °C 1023.6 hPa Calm     94 % 0 mm 0.00 W/m2
18:59 5.3 °C 4.4 °C 1023.6 hPa Calm     94 % 0 mm 0.00 W/m2
19:04 5.3 °C 4.4 °C 1023.6 hPa Calm     94 % 0 mm 0.00 W/m2
19:10 5.3 °C 4.4 °C 1023.6 hPa Calm     94 % 0 mm 0.00 W/m2
19:15 5.3 °C 4.4 °C 1023.6 hPa Calm     94 % 0 mm 0.00 W/m2
19:20 5.2 °C 4.3 °C 1023.6 hPa Calm     94 % 0 mm 0.00 W/m2
19:25 5.2 °C 4.3 °C 1023.6 hPa Calm     94 % 0 mm 0.00 W/m2
19:30 5.2 °C 4.3 °C 1023.6 hPa Calm     94 % 0 mm 0.00 W/m2
19:35 5.2 °C 4.3 °C 1023.6 hPa Calm     94 % 0 mm 0.00 W/m2
19:40 5.2 °C 4.3 °C 1023.6 hPa Calm     94 % 0 mm 0.00 W/m2
19:45 5.2 °C 4.3 °C 1023.6 hPa Calm     94 % 0 mm 0.00 W/m2
19:50 5.1 °C 4.2 °C 1023.6 hPa SSE 9.7 km/h 14.5 km/h 94 % 0 mm 0.00 W/m2
19:55 5.1 °C 4.2 °C 1023.6 hPa Calm   1.6 km/h 94 % 0 mm 0.00 W/m2
20:00 5.1 °C 4.2 °C 1023.9 hPa Calm   1.6 km/h 94 % 0 mm 0.00 W/m2
20:05 5.1 °C 4.2 °C 1023.6 hPa SSE 3.2 km/h 14.5 km/h 94 % 0 mm 0.00 W/m2
20:10 5.1 °C 4.2 °C 1023.6 hPa Calm   1.6 km/h 94 % 0 mm 0.00 W/m2
20:15 5 °C 4.1 °C 1023.9 hPa Calm     94 % 0 mm 0.00 W/m2
20:20 5 °C 4.1 °C 1023.6 hPa Calm     94 % 0 mm 0.00 W/m2
20:25 5 °C 4.1 °C 1023.6 hPa Calm     94 % 0 mm 0.00 W/m2
20:30 5 °C 4.1 °C 1023.6 hPa Calm     94 % 0 mm 0.00 W/m2
20:35 5 °C 4.1 °C 1023.9 hPa Calm     94 % 0 mm 0.00 W/m2
20:40 4.9 °C 4.1 °C 1023.9 hPa Calm     94 % 0 mm 0.00 W/m2
20:45 4.9 °C 4.1 °C 1023.9 hPa Calm     94 % 0 mm 0.00 W/m2
20:50 4.9 °C 4.1 °C 1023.9 hPa Calm     94 % 0 mm 0.00 W/m2
20:55 4.9 °C 4.1 °C 1023.9 hPa Calm     94 % 0 mm 0.00 W/m2
21:00 4.9 °C 4.1 °C 1023.9 hPa Calm     94 % 0 mm 0.00 W/m2
21:05 4.9 °C 4.1 °C 1023.9 hPa Calm     94 % 1.02 mm 0.00 W/m2
21:10 4.9 °C 4.1 °C 1023.9 hPa Calm     94 % 1.02 mm 0.00 W/m2
21:15 4.9 °C 4.1 °C 1023.9 hPa Calm     94 % 1.02 mm 0.00 W/m2
21:20 4.9 °C 4.1 °C 1023.9 hPa Calm     94 % 1.02 mm 0.00 W/m2
21:25 4.9 °C 4 °C 1023.9 hPa Calm     94 % 1.02 mm 0.00 W/m2
21:30 4.9 °C 4 °C 1023.9 hPa Calm     94 % 2.54 mm 0.00 W/m2
21:35 4.9 °C 4 °C 1023.9 hPa Calm     94 % 3.3 mm 0.00 W/m2
21:40 4.8 °C 3.9 °C 1023.9 hPa Calm     94 % 2.29 mm 0.00 W/m2
21:45 4.8 °C 3.9 °C 1023.9 hPa South 9.7 km/h 17.7 km/h 94 % 2.03 mm 0.00 W/m2
21:50 4.8 °C 3.9 °C 1023.9 hPa South 16.1 km/h 16.1 km/h 94 % 1.52 mm 0.00 W/m2
21:55 4.7 °C 3.8 °C 1023.9 hPa SSE 9.7 km/h 17.7 km/h 94 % 1.52 mm 0.00 W/m2
22:00 4.7 °C 3.8 °C 1023.9 hPa South 3.2 km/h 14.5 km/h 94 % 1.27 mm 0.00 W/m2
22:05 4.6 °C 3.7 °C 1023.9 hPa Calm   3.2 km/h 94 % 0 mm 0.00 W/m2
22:10 4.6 °C 3.7 °C 1023.9 hPa Calm   1.6 km/h 94 % 0 mm 0.00 W/m2
22:15 4.6 °C 3.7 °C 1023.9 hPa Calm   1.6 km/h 94 % 0 mm 0.00 W/m2
22:20 4.6 °C 3.7 °C 1023.9 hPa Calm   1.6 km/h 94 % 0 mm 0.00 W/m2
22:25 4.6 °C 3.7 °C 1023.9 hPa South 11.3 km/h 16.1 km/h 94 % 0 mm 0.00 W/m2
22:30 4.5 °C 3.6 °C 1023.9 hPa SSE 12.9 km/h 17.7 km/h 94 % 0 mm 0.00 W/m2
22:35 4.5 °C 3.6 °C 1023.9 hPa SSE 9.7 km/h 12.9 km/h 94 % 0 mm 0.00 W/m2
22:40 4.5 °C 3.6 °C 1023.9 hPa SSE 9.7 km/h 14.5 km/h 94 % 0 mm 0.00 W/m2
22:45 4.5 °C 3.6 °C 1023.9 hPa SSE 6.4 km/h 14.5 km/h 94 % 0 mm 0.00 W/m2
22:50 4.5 °C 3.6 °C 1023.6 hPa South 4.8 km/h 16.1 km/h 94 % 0 mm 0.00 W/m2
22:55 4.6 °C 3.7 °C 1023.6 hPa SSW 6.4 km/h 14.5 km/h 94 % 0 mm 0.00 W/m2
23:00 4.6 °C 3.7 °C 1023.6 hPa Calm   22.5 km/h 94 % 0 mm 0.00 W/m2
23:05 4.6 °C 3.7 °C 1023.9 hPa SW 4.8 km/h 17.7 km/h 94 % 0 mm 0.00 W/m2
23:10 4.6 °C 3.7 °C 1023.9 hPa South 8 km/h 27.4 km/h 94 % 2.54 mm 0.00 W/m2
23:15 4.6 °C 3.7 °C 1023.9 hPa SW 6.4 km/h 24.1 km/h 94 % 3.56 mm 0.00 W/m2
23:20 4.6 °C 3.7 °C 1023.9 hPa SW 9.7 km/h 29 km/h 94 % 4.57 mm 0.00 W/m2
23:25 4.6 °C 3.7 °C 1023.9 hPa SSW 8 km/h 22.5 km/h 94 % 4.32 mm 0.00 W/m2
23:30 4.6 °C 3.7 °C 1023.9 hPa SW 6.4 km/h 19.3 km/h 94 % 2.03 mm 0.00 W/m2
23:35 4.6 °C 3.7 °C 1023.9 hPa SSE 16.1 km/h 19.3 km/h 94 % 1.27 mm 0.00 W/m2
23:40 4.6 °C 3.7 °C 1023.9 hPa SW 4.8 km/h 25.7 km/h 94 % 0 mm 0.00 W/m2
23:45 4.6 °C 3.7 °C 1023.6 hPa South 11.3 km/h 24.1 km/h 94 % 0 mm 0.00 W/m2
23:50 4.6 °C 3.7 °C 1023.6 hPa SSW 9.7 km/h 16.1 km/h 94 % 0 mm 0.00 W/m2
23:55 4.6 °C 3.7 °C 1023.6 hPa SSE 6.4 km/h 20.9 km/h 94 % 0 mm 0.00 W/m2
Juneau County Weather
Compliments of Weather Underground - 4.5 mb
 WU-history PHP script courtesy of   Juneau County Weather.
powered by Cumulus v1.9.3 (1059)
Ambient Weather VWS v14.00
Top Contact Website Map Copyright © 2007 - 2018 Foresthillweather.com Never base important decisions on this or any weather information obtained from the Internet